Time;durP1;ratioP1;P1;durP2;ratioP2;P2;SDS_P1;SDS_P2;PMS_P1;PMS_P2;Temp;Humidity;BMP_temperature;BMP_pressure;BME280_temperature;BME280_humidity;BME280_pressure;Samples;Min_cycle;Max_cycle;Signal;HPM_P1;HPM_P2
2024/01/03 00:00:05;;;;;;;2.30;1.40;;;;;;;-4.30;100.00;99616.67;104897;1259;60428;-57
2024/01/03 00:02:32;;;;;;;3.40;1.30;;;;;;;-4.29;100.00;99610.39;105431;1254;74269;-57
2024/01/03 00:05:00;;;;;;;6.40;2.30;;;;;;;-4.29;100.00;99607.41;105198;1258;65704;-56
2024/01/03 00:07:27;;;;;;;3.20;1.60;;;;;;;-4.29;100.00;99598.12;105488;1259;73203;-56
2024/01/03 00:09:55;;;;;;;3.90;2.10;;;;;;;-4.32;100.00;99594.76;105085;1258;60543;-57
2024/01/03 00:12:23;;;;;;;4.20;2.10;;;;;;;-4.34;100.00;99603.50;105171;1257;60454;-57
2024/01/03 00:14:51;;;;;;;3.00;1.60;;;;;;;-4.35;100.00;99597.73;105127;1259;73914;-57
2024/01/03 00:17:19;;;;;;;2.70;1.70;;;;;;;-4.36;100.00;99592.81;105843;1254;65978;-56
2024/01/03 00:19:51;;;;;;;5.60;3.30;;;;;;;-4.37;100.00;99594.37;105400;1253;72755;-56
2024/01/03 00:22:19;;;;;;;8.20;4.40;;;;;;;-4.39;100.00;99587.34;105148;1258;60500;-57
2024/01/03 00:24:59;;;;;;;9.70;3.90;;;;;;;-4.43;100.00;99585.92;105228;1254;61098;-56
2024/01/03 00:27:27;;;;;;;6.20;3.60;;;;;;;-4.45;100.00;99589.05;105002;1253;73895;-56
2024/01/03 00:30:02;;;;;;;10.00;4.20;;;;;;;-4.48;100.00;99587.77;105080;1254;67625;-57
2024/01/03 00:32:30;;;;;;;7.90;4.90;;;;;;;-4.48;100.00;99587.44;104791;1257;71470;-57
2024/01/03 00:34:59;;;;;;;6.60;3.90;;;;;;;-4.47;100.00;99585.35;104759;1254;60431;-57
2024/01/03 00:37:28;;;;;;;5.20;3.10;;;;;;;-4.49;100.00;99579.71;104970;1258;60447;-56
2024/01/03 00:39:56;;;;;;;5.50;3.50;;;;;;;-4.52;100.00;99581.99;105744;1254;73939;-56
2024/01/03 00:42:24;;;;;;;10.00;4.40;;;;;;;-4.54;100.00;99572.86;105180;1256;65657;-56
2024/01/03 00:44:51;;;;;;;7.70;4.00;;;;;;;-4.58;100.00;99592.24;105087;1254;73189;-55
2024/01/03 00:47:19;;;;;;;7.40;4.20;;;;;;;-4.56;100.00;99588.94;105237;1254;60600;-56
2024/01/03 00:49:47;;;;;;;9.10;3.50;;;;;;;-4.50;100.00;99581.29;104898;1252;62182;-55
2024/01/03 00:52:14;;;;;;;6.60;4.10;;;;;;;-4.43;100.00;99582.41;106580;1253;73791;-57
2024/01/03 00:54:41;;;;;;;7.00;3.50;;;;;;;-4.35;100.00;99581.07;104905;1257;65729;-56
2024/01/03 00:57:09;;;;;;;9.50;4.40;;;;;;;-4.29;100.00;99585.16;104943;1254;75245;-57
2024/01/03 00:59:37;;;;;;;11.20;5.10;;;;;;;-4.21;100.00;99574.53;105043;1258;60348;-57
2024/01/03 01:02:05;;;;;;;8.60;4.20;;;;;;;-4.13;100.00;99570.38;104970;1259;60444;-58
2024/01/03 01:04:32;;;;;;;9.60;5.20;;;;;;;-4.09;100.00;99562.37;104706;1254;75885;-56
2024/01/03 01:07:00;;;;;;;11.00;5.90;;;;;;;-4.06;100.00;99562.38;104805;1253;65480;-56
2024/01/03 01:09:27;;;;;;;13.70;7.00;;;;;;;-4.05;100.00;99564.66;105122;1256;70808;-57
2024/01/03 01:11:54;;;;;;;13.40;7.10;;;;;;;-4.05;100.00;99569.73;105035;1259;60779;-57
2024/01/03 01:14:22;;;;;;;11.90;5.60;;;;;;;-4.07;100.00;99567.96;105122;1254;61073;-57
2024/01/03 01:16:49;;;;;;;9.30;5.30;;;;;;;-4.09;100.00;99569.73;105092;1257;73919;-56
2024/01/03 01:19:16;;;;;;;13.40;7.50;;;;;;;-4.11;100.00;99557.61;104740;1251;67387;-56
2024/01/03 01:21:44;;;;;;;11.70;6.60;;;;;;;-4.13;100.00;99554.95;105095;1258;70009;-56
2024/01/03 01:24:11;;;;;;;13.90;6.30;;;;;;;-4.15;100.00;99556.86;104975;1257;61441;-58
2024/01/03 01:26:39;;;;;;;9.20;4.80;;;;;;;-4.17;100.00;99557.74;105006;1253;60800;-56
2024/01/03 01:29:07;;;;;;;7.50;4.50;;;;;;;-4.20;100.00;99561.75;105554;1255;73840;-56
2024/01/03 01:31:34;;;;;;;9.70;5.50;;;;;;;-4.21;100.00;99559.46;104776;1258;69607;-56
2024/01/03 01:34:02;;;;;;;10.20;5.70;;;;;;;-4.23;100.00;99554.36;104782;1257;71611;-55
2024/01/03 01:36:29;;;;;;;10.00;6.00;;;;;;;-4.25;100.00;99547.16;105049;1254;60679;-59
2024/01/03 01:38:57;;;;;;;9.90;4.40;;;;;;;-4.28;100.00;99546.81;104784;1257;60454;-56
2024/01/03 01:41:25;;;;;;;7.50;4.40;;;;;;;-4.31;100.00;99538.54;104779;1254;72654;-56
2024/01/03 01:43:53;;;;;;;9.30;5.30;;;;;;;-4.35;100.00;99534.13;104860;1259;65620;-58
2024/01/03 01:46:21;;;;;;;5.90;3.30;;;;;;;-4.36;100.00;99532.38;104685;1257;73262;-56
2024/01/03 01:48:48;;;;;;;7.70;4.10;;;;;;;-4.35;100.00;99537.64;106091;1256;60522;-57
2024/01/03 01:51:16;;;;;;;6.40;3.40;;;;;;;-4.32;100.00;99542.20;104648;1261;60572;-55
2024/01/03 01:53:43;;;;;;;11.20;5.00;;;;;;;-4.28;100.00;99552.23;104838;1260;72630;-56
2024/01/03 01:56:10;;;;;;;10.70;4.30;;;;;;;-4.23;100.00;99555.06;104827;1254;65183;-56
2024/01/03 01:58:40;;;;;;;6.20;3.70;;;;;;;-4.17;100.00;99543.20;104599;1257;71426;-57
2024/01/03 02:01:07;;;;;;;6.90;4.00;;;;;;;-4.11;100.00;99549.02;106125;1256;60440;-57
2024/01/03 02:03:35;;;;;;;5.30;3.40;;;;;;;-4.05;100.00;99547.84;104620;1254;60453;-57
2024/01/03 02:06:04;;;;;;;8.70;4.80;;;;;;;-4.01;100.00;99542.27;104698;1257;75081;-55
2024/01/03 02:08:33;;;;;;;10.20;5.40;;;;;;;-3.99;100.00;99538.59;105063;1255;67208;-56
2024/01/03 02:11:01;;;;;;;9.00;4.60;;;;;;;-3.98;100.00;99533.50;104838;1254;72930;-55
2024/01/03 02:13:28;;;;;;;8.20;4.80;;;;;;;-3.98;100.00;99534.20;104674;1259;60454;-57
2024/01/03 02:15:56;;;;;;;7.00;4.10;;;;;;;-4.00;100.00;99527.91;104903;1254;60460;-55
2024/01/03 02:18:25;;;;;;;8.80;4.60;;;;;;;-4.03;100.00;99524.55;108970;1254;72665;-58
2024/01/03 02:20:55;;;;;;;7.30;4.50;;;;;;;-4.06;100.00;99527.85;105925;1256;69784;-57
2024/01/03 02:23:23;;;;;;;9.20;5.40;;;;;;;-4.12;100.00;99523.96;108945;1257;72941;-57
2024/01/03 02:25:51;;;;;;;9.30;5.60;;;;;;;-4.17;100.00;99513.07;108808;1260;60020;-56
2024/01/03 02:28:18;;;;;;;8.80;6.10;;;;;;;-4.21;100.00;99524.77;108380;1254;63891;-57
2024/01/03 02:30:48;;;;;;;13.80;6.60;;;;;;;-4.24;100.00;99530.52;104696;1254;74077;-57
2024/01/03 02:33:15;;;;;;;12.00;6.70;;;;;;;-4.27;100.00;99518.78;108467;1254;68115;-56
2024/01/03 02:35:43;;;;;;;10.50;6.90;;;;;;;-4.28;100.00;99526.83;108901;1254;72647;-56
2024/01/03 02:38:10;;;;;;;11.50;6.20;;;;;;;-4.29;100.00;99533.83;109072;1256;58538;-56
2024/01/03 02:40:38;;;;;;;14.60;6.40;;;;;;;-4.30;100.00;99536.09;108972;1254;58568;-58
2024/01/03 02:43:05;;;;;;;11.10;5.80;;;;;;;-4.30;100.00;99539.07;108900;1254;72880;-57
2024/01/03 02:45:32;;;;;;;8.50;5.10;;;;;;;-4.28;100.00;99539.96;108857;1254;65661;-57
2024/01/03 02:48:01;;;;;;;9.90;4.70;;;;;;;-4.25;100.00;99538.77;104942;1259;73613;-57
2024/01/03 02:50:29;;;;;;;10.60;4.00;;;;;;;-4.20;100.00;99536.52;104661;1257;60548;-57
2024/01/03 02:52:56;;;;;;;7.40;3.50;;;;;;;-4.15;100.00;99535.67;104587;1254;60562;-56
2024/01/03 02:55:23;;;;;;;10.40;4.90;;;;;;;-4.09;100.00;99532.23;104865;1254;72936;-55
2024/01/03 02:57:50;;;;;;;10.70;4.50;;;;;;;-4.03;100.00;99515.08;104855;1257;67419;-56
2024/01/03 03:00:18;;;;;;;9.90;4.90;;;;;;;-4.00;100.00;99529.99;104970;1257;71506;-57
2024/01/03 03:02:45;;;;;;;12.00;5.40;;;;;;;-3.99;100.00;99538.05;104848;1254;60505;-55
2024/01/03 03:05:13;;;;;;;11.00;6.20;;;;;;;-3.99;100.00;99538.93;105055;1254;61000;-56
2024/01/03 03:07:40;;;;;;;9.10;4.20;;;;;;;-3.97;100.00;99536.14;104781;1254;72604;-57
2024/01/03 03:10:11;;;;;;;7.80;4.70;;;;;;;-3.99;100.00;99531.05;104869;1256;65621;-56
2024/01/03 03:12:39;;;;;;;7.50;4.70;;;;;;;-4.03;100.00;99529.63;105596;1256;71508;-56
2024/01/03 03:15:06;;;;;;;9.40;6.30;;;;;;;-4.08;100.00;99532.75;104847;1254;60441;-58
2024/01/03 03:17:34;;;;;;;9.40;4.60;;;;;;;-4.14;100.00;99520.08;104752;1253;60314;-58
2024/01/03 03:20:01;;;;;;;7.80;5.20;;;;;;;-4.20;100.00;99518.13;105428;1254;72643;-56
2024/01/03 03:22:29;;;;;;;8.10;5.40;;;;;;;-4.25;100.00;99513.00;104868;1257;65265;-57
2024/01/03 03:24:56;;;;;;;9.80;5.80;;;;;;;-4.29;100.00;99506.84;104739;1254;74848;-56
2024/01/03 03:27:24;;;;;;;12.00;6.60;;;;;;;-4.33;100.00;99502.95;104722;1254;60478;-56
2024/01/03 03:29:52;;;;;;;17.10;8.80;;;;;;;-4.37;100.00;99501.01;104594;1254;60361;-57
2024/01/03 03:32:19;;;;;;;17.70;9.10;;;;;;;-4.39;100.00;99498.71;104673;1254;72625;-57
2024/01/03 03:34:47;;;;;;;13.80;6.60;;;;;;;-4.38;100.00;99491.19;104914;1254;65651;-54
2024/01/03 03:37:14;;;;;;;9.60;5.60;;;;;;;-4.36;100.00;99486.13;104714;1256;74756;-55
2024/01/03 03:39:42;;;;;;;6.00;3.40;;;;;;;-4.34;100.00;99483.16;104761;1257;60389;-57
2024/01/03 03:42:09;;;;;;;6.80;4.10;;;;;;;-4.33;100.00;99479.83;105092;1254;60450;-57
2024/01/03 03:44:40;;;;;;;5.50;3.60;;;;;;;-4.31;100.00;99480.90;104884;1258;74222;-57
2024/01/03 03:49:55;;;;;;;7.60;4.40;;;;;;;-4.32;100.00;99527.31;101849;1292;600975;-57
2024/01/03 03:52:23;;;;;;;7.90;4.40;;;;;;;-4.32;100.00;99523.98;103827;1269;59299;-58
2024/01/03 03:54:50;;;;;;;6.30;3.80;;;;;;;-4.33;100.00;99521.52;103830;1269;60673;-55
2024/01/03 03:57:17;;;;;;;6.10;4.10;;;;;;;-4.35;100.00;99519.42;103701;1269;74474;-57
2024/01/03 03:59:44;;;;;;;7.10;4.90;;;;;;;-4.39;100.00;99509.57;103847;1273;69268;-57
2024/01/03 04:02:12;;;;;;;8.20;4.60;;;;;;;-4.45;100.00;99509.70;103955;1270;72682;-55
2024/01/03 04:04:39;;;;;;;9.20;5.60;;;;;;;-4.51;100.00;99507.55;104194;1269;143130;-57
2024/01/03 04:07:07;;;;;;;7.40;5.20;;;;;;;-4.56;100.00;99498.58;103696;1268;60056;-56
2024/01/03 04:09:35;;;;;;;8.00;5.10;;;;;;;-4.61;100.00;99497.51;104239;1267;70697;-57
2024/01/03 04:12:03;;;;;;;8.80;5.80;;;;;;;-4.65;100.00;99493.08;103653;1266;67413;-57
2024/01/03 04:14:30;;;;;;;12.20;5.10;;;;;;;-4.73;100.00;99496.52;107498;1269;72793;-58
2024/01/03 04:16:58;;;;;;;10.80;6.10;;;;;;;-4.78;100.00;99498.75;103974;1274;61717;-56
2024/01/03 04:19:25;;;;;;;9.00;6.00;;;;;;;-4.84;100.00;99496.77;104066;1267;60022;-56
2024/01/03 04:21:53;;;;;;;10.90;5.20;;;;;;;-4.88;100.00;99493.77;106336;1266;73132;-57
2024/01/03 04:24:20;;;;;;;11.70;6.50;;;;;;;-4.88;100.00;99487.46;103901;1266;65699;-56
2024/01/03 04:26:47;;;;;;;8.80;5.90;;;;;;;-4.86;100.00;99487.48;103682;1266;71425;-57
2024/01/03 04:29:15;;;;;;;12.60;8.30;;;;;;;-4.83;100.00;99483.46;103899;1266;60261;-58
2024/01/03 04:31:42;;;;;;;13.90;8.40;;;;;;;-4.79;100.00;99482.11;104007;1266;61552;-56
2024/01/03 04:34:09;;;;;;;12.90;7.30;;;;;;;-4.79;100.00;99482.82;103766;1269;73677;-56
2024/01/03 04:36:37;;;;;;;11.90;6.90;;;;;;;-4.78;100.00;99486.69;104194;1272;65794;-57
2024/01/03 04:39:04;;;;;;;12.40;7.60;;;;;;;-4.79;100.00;99494.20;103669;1269;72753;-55
2024/01/03 04:41:31;;;;;;;10.60;7.40;;;;;;;-4.83;100.00;99493.80;104296;1262;59904;-60
2024/01/03 04:43:59;;;;;;;9.70;6.70;;;;;;;-4.89;100.00;99489.73;105601;1258;59574;-57
2024/01/03 04:46:26;;;;;;;11.00;7.80;;;;;;;-4.93;100.00;99483.74;104314;1265;71688;-57
2024/01/03 04:48:54;;;;;;;12.10;8.40;;;;;;;-4.98;100.00;99479.50;104413;1260;67475;-56
2024/01/03 04:51:22;;;;;;;13.00;8.00;;;;;;;-5.01;100.00;99480.86;104319;1262;72735;-57
2024/01/03 04:53:50;;;;;;;11.80;7.60;;;;;;;-5.04;100.00;99486.63;104195;1264;60190;-56
2024/01/03 04:56:18;;;;;;;12.70;6.80;;;;;;;-5.07;100.00;99483.44;107314;1259;60553;-57
2024/01/03 04:58:45;;;;;;;10.10;6.50;;;;;;;-5.06;100.00;99484.15;104235;1259;71592;-59
2024/01/03 05:01:12;;;;;;;11.20;6.80;;;;;;;-5.05;100.00;99483.98;104286;1262;65891;-54
2024/01/03 05:03:40;;;;;;;11.90;6.20;;;;;;;-5.03;100.00;99483.64;104175;1260;72787;-58
2024/01/03 05:06:07;;;;;;;10.20;5.00;;;;;;;-4.99;100.00;99484.55;104459;1263;60062;-54
2024/01/03 05:08:35;;;;;;;15.90;7.40;;;;;;;-4.94;100.00;99482.33;104221;1265;59666;-57
2024/01/03 05:11:02;;;;;;;13.20;7.90;;;;;;;-4.86;100.00;99481.36;104432;1262;73022;-57
2024/01/03 05:13:30;;;;;;;18.10;8.10;;;;;;;-4.83;100.00;99477.69;104320;1260;66995;-56
2024/01/03 05:15:57;;;;;;;16.60;8.70;;;;;;;-4.81;100.00;99482.09;104446;1260;73167;-58
2024/01/03 05:18:26;;;;;;;19.80;10.70;;;;;;;-4.80;100.00;99480.17;104477;1260;59618;-56
2024/01/03 05:20:54;;;;;;;20.30;10.30;;;;;;;-4.82;100.00;99481.90;108563;1259;59364;-57
2024/01/03 05:23:22;;;;;;;19.50;10.30;;;;;;;-4.85;100.00;99484.87;108559;1259;71831;-57
2024/01/03 05:25:49;;;;;;;17.60;10.60;;;;;;;-4.87;100.00;99485.02;105654;1264;68858;-57
2024/01/03 05:28:16;;;;;;;17.80;8.60;;;;;;;-4.88;100.00;99479.41;104387;1260;71378;-58
2024/01/03 05:30:44;;;;;;;17.90;9.90;;;;;;;-4.88;100.00;99480.45;104440;1260;59513;-57
2024/01/03 05:33:12;;;;;;;12.10;7.30;;;;;;;-4.89;100.00;99481.31;108579;1258;63044;-57
2024/01/03 05:35:39;;;;;;;13.50;8.30;;;;;;;-4.91;100.00;99477.79;108647;1259;73304;-59
2024/01/03 05:38:07;;;;;;;13.30;8.00;;;;;;;-4.93;100.00;99479.02;108607;1264;65680;-57
2024/01/03 05:40:34;;;;;;;11.20;6.60;;;;;;;-4.94;100.00;99480.42;108605;1259;72239;-57
2024/01/03 05:43:02;;;;;;;13.80;6.30;;;;;;;-4.92;100.00;99479.36;108424;1264;61766;-57
2024/01/03 05:45:29;;;;;;;8.50;5.20;;;;;;;-4.90;100.00;99479.20;108687;1259;60147;-57
2024/01/03 05:47:57;;;;;;;6.60;4.60;;;;;;;-4.86;100.00;99476.80;108571;1260;73093;-58
2024/01/03 05:50:24;;;;;;;9.10;5.60;;;;;;;-4.83;100.00;99478.04;104656;1265;65347;-56
2024/01/03 05:52:51;;;;;;;8.80;6.60;;;;;;;-4.82;100.00;99475.08;104108;1265;70788;-57
2024/01/03 05:55:19;;;;;;;11.70;6.10;;;;;;;-4.79;100.00;99475.11;104164;1260;59820;-57
2024/01/03 05:57:46;;;;;;;15.50;7.20;;;;;;;-4.78;100.00;99470.59;104340;1263;59638;-56
2024/01/03 06:00:15;;;;;;;9.40;6.50;;;;;;;-4.77;100.00;99472.52;104318;1260;73062;-59
2024/01/03 06:02:43;;;;;;;10.40;6.90;;;;;;;-4.79;100.00;99471.27;104511;1259;65508;-57
2024/01/03 06:05:16;;;;;;;12.20;7.60;;;;;;;-4.81;100.00;99469.66;105236;1264;71646;-57
2024/01/03 06:07:44;;;;;;;8.90;7.00;;;;;;;-4.84;100.00;99466.48;104126;1260;59732;-57
2024/01/03 06:10:12;;;;;;;12.70;8.00;;;;;;;-4.86;100.00;99470.67;103991;1259;59752;-57
2024/01/03 06:12:39;;;;;;;10.30;6.60;;;;;;;-4.87;100.00;99472.06;104050;1265;73231;-58
2024/01/03 06:15:07;;;;;;;12.00;7.30;;;;;;;-4.90;100.00;99466.44;104383;1273;66944;-56
2024/01/03 06:17:36;;;;;;;12.80;7.30;;;;;;;-4.92;100.00;99464.14;104685;1259;71468;-58
2024/01/03 06:20:04;;;;;;;9.00;6.20;;;;;;;-4.92;100.00;99464.48;104533;1259;60102;-58
2024/01/03 06:22:32;;;;;;;12.40;6.80;;;;;;;-4.91;100.00;99458.02;104606;1265;61040;-56
2024/01/03 06:24:59;;;;;;;9.50;5.60;;;;;;;-4.88;100.00;99455.42;104460;1259;71908;-56
2024/01/03 06:27:26;;;;;;;12.80;7.30;;;;;;;-4.84;100.00;99459.84;104405;1265;64682;-56
2024/01/03 06:29:54;;;;;;;11.50;7.40;;;;;;;-4.79;100.00;99452.18;104552;1264;70852;-58
2024/01/03 06:32:21;;;;;;;11.90;7.70;;;;;;;-4.74;100.00;99446.43;104285;1260;59608;-55
2024/01/03 06:34:49;;;;;;;12.80;8.80;;;;;;;-4.73;100.00;99442.77;104375;1265;59981;-55
2024/01/03 06:37:17;;;;;;;14.60;8.20;;;;;;;-4.73;100.00;99435.06;104347;1265;71689;-55
2024/01/03 06:39:44;;;;;;;20.10;9.30;;;;;;;-4.74;100.00;99427.36;104504;1260;65803;-54
2024/01/03 06:42:12;;;;;;;13.60;9.40;;;;;;;-4.75;100.00;99425.42;104545;1260;71234;-56
2024/01/03 06:44:39;;;;;;;13.60;8.50;;;;;;;-4.75;100.00;99426.63;104511;1259;59845;-55
2024/01/03 06:47:06;;;;;;;17.40;9.80;;;;;;;-4.77;100.00;99427.35;104421;1265;59922;-56
2024/01/03 06:49:34;;;;;;;16.50;9.10;;;;;;;-4.79;100.00;99420.50;104318;1264;73664;-57
2024/01/03 06:52:01;;;;;;;20.00;11.20;;;;;;;-4.83;100.00;99410.83;104392;1263;67418;-60
2024/01/03 06:54:29;;;;;;;19.40;11.10;;;;;;;-4.86;100.00;99408.90;104253;1264;71303;-55
2024/01/03 06:56:56;;;;;;;23.50;10.60;;;;;;;-4.88;100.00;99406.08;104463;1265;62630;-56
2024/01/03 06:59:23;;;;;;;18.60;9.80;;;;;;;-4.86;100.00;99401.55;104639;1264;59870;-53
2024/01/03 07:01:51;;;;;;;14.10;9.30;;;;;;;-4.81;100.00;99401.92;104771;1263;73585;-54
2024/01/03 07:04:21;;;;;;;14.80;8.40;;;;;;;-4.75;100.00;99395.48;104444;1264;69210;-54
2024/01/03 07:06:52;;;;;;;16.60;9.40;;;;;;;-4.66;100.00;99387.84;106190;1265;72080;-55
2024/01/03 07:09:20;;;;;;;15.30;10.50;;;;;;;-4.60;100.00;99381.07;104478;1265;59830;-55
2024/01/03 07:11:48;;;;;;;14.90;9.50;;;;;;;-4.56;100.00;99376.52;104380;1264;59580;-54
2024/01/03 07:14:15;;;;;;;17.20;10.30;;;;;;;-4.54;100.00;99376.20;104414;1263;72918;-56
2024/01/03 07:16:42;;;;;;;16.30;10.40;;;;;;;-4.57;100.00;99371.09;104271;1261;66313;-58
2024/01/03 07:19:10;;;;;;;16.00;10.10;;;;;;;-4.58;100.00;99367.92;104397;1262;70706;-55
2024/01/03 07:21:38;;;;;;;15.00;9.60;;;;;;;-4.61;100.00;99370.56;104659;1263;60154;-56
2024/01/03 07:24:05;;;;;;;13.30;9.30;;;;;;;-4.64;100.00;99368.60;104599;1263;59661;-56
2024/01/03 07:26:33;;;;;;;14.30;9.70;;;;;;;-4.67;100.00;99368.23;104904;1260;73112;-57
2024/01/03 07:29:00;;;;;;;11.40;8.70;;;;;;;-4.69;100.00;99361.23;104511;1264;67320;-57
2024/01/03 07:31:28;;;;;;;15.90;9.30;;;;;;;-4.70;100.00;99351.41;104413;1264;71575;-56
2024/01/03 07:33:55;;;;;;;15.20;9.60;;;;;;;-4.68;100.00;99345.46;104450;1265;59801;-56
2024/01/03 07:36:23;;;;;;;11.60;7.90;;;;;;;-4.65;100.00;99346.54;104722;1262;59646;-56
2024/01/03 07:38:50;;;;;;;12.50;6.90;;;;;;;-4.60;100.00;99344.30;104576;1257;71333;-56
2024/01/03 07:41:20;;;;;;;14.50;7.90;;;;;;;-4.51;100.00;99343.63;104552;1260;66171;-57
2024/01/03 07:43:48;;;;;;;16.90;9.60;;;;;;;-4.46;100.00;99338.94;104732;1257;73162;-57
2024/01/03 07:46:15;;;;;;;15.50;10.40;;;;;;;-4.42;100.00;99343.34;104703;1262;59346;-56
2024/01/03 07:48:43;;;;;;;13.10;8.00;;;;;;;-4.37;100.00;99345.81;104785;1257;59673;-55
2024/01/03 07:51:11;;;;;;;13.50;8.70;;;;;;;-4.35;100.00;99337.24;104680;1262;73005;-58
2024/01/03 07:53:38;;;;;;;13.30;8.10;;;;;;;-4.33;100.00;99337.93;104734;1257;65853;-56
2024/01/03 07:56:06;;;;;;;14.30;10.10;;;;;;;-4.34;100.00;99333.56;104713;1261;73354;-57
2024/01/03 07:58:34;;;;;;;11.60;7.50;;;;;;;-4.36;100.00;99329.18;105622;1261;60467;-56
2024/01/03 08:01:01;;;;;;;12.90;8.10;;;;;;;-4.38;100.00;99329.69;104749;1260;60486;-55
2024/01/03 08:03:28;;;;;;;14.90;8.70;;;;;;;-4.40;100.00;99325.47;104753;1261;72507;-56
2024/01/03 08:05:56;;;;;;;9.90;7.40;;;;;;;-4.40;100.00;99321.96;108738;1260;65654;-57
2024/01/03 08:08:24;;;;;;;12.60;6.60;;;;;;;-4.36;100.00;99320.23;108772;1261;70505;-57
2024/01/03 08:10:51;;;;;;;12.00;6.80;;;;;;;-4.32;100.00;99314.29;108797;1256;58611;-58
2024/01/03 08:13:19;;;;;;;10.60;6.60;;;;;;;-4.28;100.00;99312.56;108825;1257;60103;-57
2024/01/03 08:15:46;;;;;;;11.80;7.40;;;;;;;-4.23;100.00;99306.80;105526;1260;72927;-57
2024/01/03 08:18:13;;;;;;;14.30;7.80;;;;;;;-4.19;100.00;99298.08;104447;1256;66930;-56
2024/01/03 08:20:41;;;;;;;10.00;7.80;;;;;;;-4.16;100.00;99296.66;108712;1260;72772;-56
2024/01/03 08:23:09;;;;;;;10.40;6.70;;;;;;;-4.15;100.00;99296.30;108889;1260;59022;-55
2024/01/03 08:25:37;;;;;;;10.00;7.90;;;;;;;-4.16;100.00;99292.64;108787;1256;59147;-55
2024/01/03 08:28:05;;;;;;;13.30;8.60;;;;;;;-4.16;100.00;99288.60;108780;1260;72552;-55
2024/01/03 08:30:33;;;;;;;11.80;6.90;;;;;;;-4.15;100.00;99283.69;105739;1256;66141;-56
2024/01/03 08:33:00;;;;;;;12.40;7.60;;;;;;;-4.12;100.00;99286.16;108853;1256;71104;-56
2024/01/03 08:35:28;;;;;;;8.80;6.60;;;;;;;-4.09;100.00;99282.33;108706;1256;61198;-56
2024/01/03 08:37:55;;;;;;;10.60;7.50;;;;;;;-4.03;100.00;99280.59;105064;1257;60488;-57
2024/01/03 08:40:23;;;;;;;10.10;7.10;;;;;;;-3.97;100.00;99271.30;104638;1262;72978;-56
2024/01/03 08:42:51;;;;;;;11.20;7.10;;;;;;;-3.92;100.00;99269.74;106752;1260;65698;-57
2024/01/03 08:45:19;;;;;;;13.20;8.60;;;;;;;-3.87;100.00;99265.71;108626;1258;73638;-58
2024/01/03 08:47:46;;;;;;;13.50;8.30;;;;;;;-3.86;100.00;99262.39;106075;1260;59103;-57
2024/01/03 08:50:16;;;;;;;11.30;7.70;;;;;;;-3.85;100.00;99259.77;104601;1261;60466;-55
2024/01/03 08:52:44;;;;;;;12.90;7.70;;;;;;;-3.84;100.00;99251.53;104474;1257;73831;-56
2024/01/03 08:55:11;;;;;;;15.20;9.60;;;;;;;-3.86;100.00;99249.77;104587;1257;67666;-54
2024/01/03 08:57:38;;;;;;;10.60;7.30;;;;;;;-3.86;100.00;99252.92;104593;1260;72740;-56
2024/01/03 09:00:06;;;;;;;14.20;7.70;;;;;;;-3.84;100.00;99248.36;104764;1261;60584;-55
2024/01/03 09:02:34;;;;;;;10.30;7.70;;;;;;;-3.79;100.00;99247.48;104697;1263;60379;-56
2024/01/03 09:05:01;;;;;;;10.60;7.80;;;;;;;-3.73;100.00;99241.52;104544;1258;72687;-56
2024/01/03 09:07:28;;;;;;;12.30;7.80;;;;;;;-3.69;100.00;99234.35;105197;1263;67637;-56
2024/01/03 09:09:56;;;;;;;12.70;8.50;;;;;;;-3.65;100.00;99233.64;104770;1260;71761;-56
2024/01/03 09:12:24;;;;;;;14.50;8.60;;;;;;;-3.61;100.00;99229.97;104428;1260;60642;-56
2024/01/03 09:14:52;;;;;;;14.20;8.80;;;;;;;-3.58;100.00;99225.41;105111;1262;60632;-56
2024/01/03 09:17:19;;;;;;;15.80;10.30;;;;;;;-3.58;100.00;99224.52;104579;1264;73781;-56
2024/01/03 09:19:46;;;;;;;17.00;10.20;;;;;;;-3.59;100.00;99218.75;104687;1260;69197;-56
2024/01/03 09:22:16;;;;;;;12.40;9.00;;;;;;;-3.60;100.00;99216.30;104425;1260;73209;-55
2024/01/03 09:24:43;;;;;;;13.50;8.70;;;;;;;-3.59;100.00;99213.14;104198;1261;60549;-55
2024/01/03 09:27:10;;;;;;;11.00;8.00;;;;;;;-3.57;100.00;99204.70;104468;1262;60810;-57
2024/01/03 09:29:38;;;;;;;12.10;7.60;;;;;;;-3.54;100.00;99201.72;104640;1257;72678;-55
2024/01/03 09:32:07;;;;;;;10.40;7.50;;;;;;;-3.48;100.00;99201.71;104366;1266;67717;-56
2024/01/03 09:34:39;;;;;;;13.60;8.90;;;;;;;-3.39;100.00;99191.52;105539;1260;72735;-54
2024/01/03 09:37:06;;;;;;;13.20;8.90;;;;;;;-3.30;100.00;99187.83;104907;1260;60534;-53
2024/01/03 09:39:34;;;;;;;13.50;8.10;;;;;;;-3.23;100.00;99187.83;104762;1257;60414;-57
2024/01/03 09:42:01;;;;;;;13.40;9.30;;;;;;;-3.19;100.00;99183.77;104563;1260;73745;-56
2024/01/03 09:44:29;;;;;;;14.20;8.90;;;;;;;-3.17;100.00;99179.39;105796;1257;67521;-57
2024/01/03 09:46:56;;;;;;;13.90;9.10;;;;;;;-3.18;100.00;99174.12;105476;1260;71485;-56
2024/01/03 09:49:24;;;;;;;14.40;9.90;;;;;;;-3.19;100.00;99171.48;104918;1262;60555;-55
2024/01/03 09:51:52;;;;;;;13.50;9.40;;;;;;;-3.23;100.00;99163.25;104967;1260;60331;-52
2024/01/03 09:54:19;;;;;;;14.70;8.70;;;;;;;-3.22;100.00;99158.50;104730;1255;71765;-55
2024/01/03 09:56:51;;;;;;;11.90;7.50;;;;;;;-3.20;100.00;99156.75;105014;1260;66795;-56
2024/01/03 09:59:19;;;;;;;13.80;8.60;;;;;;;-3.17;100.00;99150.96;105206;1260;73185;-57
2024/01/03 10:01:56;;;;;;;14.20;9.00;;;;;;;-3.14;100.00;99140.59;104764;1260;60555;-55
2024/01/03 10:04:27;;;;;;;12.40;8.20;;;;;;;-3.09;100.00;99136.19;104589;1262;60707;-56
2024/01/03 10:06:54;;;;;;;15.30;8.80;;;;;;;-3.07;100.00;99129.33;104808;1256;72637;-56
2024/01/03 10:09:22;;;;;;;15.60;10.60;;;;;;;-3.06;100.00;99121.25;105238;1260;67316;-55
2024/01/03 10:11:51;;;;;;;20.70;11.60;;;;;;;-3.09;100.00;99111.27;104573;1257;73398;-55
2024/01/03 10:14:21;;;;;;;15.40;8.60;;;;;;;-3.12;100.00;99103.36;106044;1260;60676;-56
2024/01/03 10:16:49;;;;;;;13.80;8.90;;;;;;;-3.14;100.00;99097.92;104756;1258;60480;-57
2024/01/03 10:19:18;;;;;;;14.50;8.90;;;;;;;-3.13;100.00;99086.86;104832;1260;73925;-56
2024/01/03 10:21:51;;;;;;;12.70;9.00;;;;;;;-3.13;100.00;99083.89;105137;1257;66879;-56
2024/01/03 10:24:20;;;;;;;13.20;8.30;;;;;;;-3.12;100.00;99076.16;105025;1257;72729;-56
2024/01/03 10:26:48;;;;;;;12.90;8.80;;;;;;;-3.09;100.00;99069.32;104909;1257;60429;-55
2024/01/03 10:29:17;;;;;;;13.40;9.00;;;;;;;-3.07;100.00;99064.38;104640;1256;60499;-56
2024/01/03 10:31:46;;;;;;;12.90;8.50;;;;;;;-3.06;100.00;99057.52;104940;1261;72735;-55
2024/01/03 10:34:17;;;;;;;11.40;7.90;;;;;;;-3.07;100.00;99050.16;104895;1258;67275;-55
2024/01/03 10:36:45;;;;;;;13.20;9.40;;;;;;;-3.08;100.00;99042.64;104692;1263;71454;-57
2024/01/03 10:39:17;;;;;;;11.20;8.20;;;;;;;-3.10;100.00;99031.93;105617;1258;60431;-55
2024/01/03 10:41:46;;;;;;;13.50;7.80;;;;;;;-3.14;100.00;99028.09;105570;1255;63883;-55
2024/01/03 10:44:15;;;;;;;12.50;8.40;;;;;;;-3.15;100.00;99028.45;105269;1258;72873;-55
2024/01/03 10:46:43;;;;;;;12.10;8.30;;;;;;;-3.14;100.00;99032.48;104866;1260;67231;-55
2024/01/03 10:49:11;;;;;;;10.00;5.70;;;;;;;-3.13;100.00;99030.88;104688;1257;71415;-55
2024/01/03 10:51:40;;;;;;;12.30;8.70;;;;;;;-3.10;100.00;99025.79;104741;1256;60429;-54
2024/01/03 10:54:09;;;;;;;9.20;6.60;;;;;;;-3.07;100.00;99024.02;105333;1261;60702;-54
2024/01/03 10:56:37;;;;;;;9.50;6.70;;;;;;;-3.01;100.00;99011.17;104990;1260;72744;-55
2024/01/03 10:59:05;;;;;;;10.90;8.00;;;;;;;-3.00;100.00;99004.67;106471;1260;66109;-55
2024/01/03 11:01:47;;;;;;;13.70;9.00;;;;;;;-3.02;100.00;98991.70;104999;1261;72855;-58
2024/01/03 11:04:21;;;;;;;11.80;7.40;;;;;;;-3.04;100.00;98986.60;104562;1257;60539;-57
2024/01/03 11:06:53;;;;;;;12.70;8.00;;;;;;;-3.06;100.00;98976.97;105279;1258;60442;-55
2024/01/03 11:09:21;;;;;;;11.10;8.00;;;;;;;-3.06;100.00;98976.95;104543;1260;73908;-54
2024/01/03 11:12:13;;;;;;;9.60;7.00;;;;;;;-3.02;100.00;98977.65;104808;1260;66991;-55
2024/01/03 11:14:40;;;;;;;12.00;7.60;;;;;;;-2.96;100.00;98976.54;108799;1255;73724;-56
2024/01/03 11:17:11;;;;;;;11.60;8.40;;;;;;;-2.90;100.00;98973.90;108786;1256;59302;-55